Time;durP1;ratioP1;P1;durP2;ratioP2;P2;SDS_P1;SDS_P2;PMS_P1;PMS_P2;Temp;Humidity;BMP_temperature;BMP_pressure;BME280_temperature;BME280_humidity;BME280_pressure;Samples;Min_cycle;Max_cycle;Signal;HPM_P1;HPM_P2
2022/06/21 00:01:22;;;;;;;17.25;7.15;;;;;;;;;;6151595;23;20389;-58
2022/06/21 00:03:48;;;;;;;11.18;6.32;;;;;;;;;;6146898;23;20065;-58
2022/06/21 00:06:16;;;;;;;10.93;6.78;;;;;;;;;;6151138;23;20021;-58
2022/06/21 00:08:42;;;;;;;13.50;7.55;;;;;;;;;;6144897;23;20025;-58
2022/06/21 00:11:31;;;;;;;13.65;7.28;;;;;;;;;;6150351;23;20069;-58
2022/06/21 00:13:56;;;;;;;11.97;6.53;;;;;;;;;;6128811;23;20056;-58
2022/06/21 00:16:22;;;;;;;10.95;5.50;;;;;;;;;;6148017;23;20018;-58
2022/06/21 00:18:48;;;;;;;21.90;7.40;;;;;;;;;;6147871;23;20014;-62
2022/06/21 00:21:15;;;;;;;11.02;6.07;;;;;;;;;;6146007;23;20411;-57
2022/06/21 00:23:40;;;;;;;10.20;5.75;;;;;;;;;;6148054;23;20049;-58
2022/06/21 00:26:08;;;;;;;8.95;5.20;;;;;;;;;;6150216;23;20069;-59
2022/06/21 00:28:33;;;;;;;9.30;4.70;;;;;;;;;;6147152;23;20025;-59
2022/06/21 00:30:58;;;;;;;11.13;5.65;;;;;;;;;;6150940;23;20009;-58
2022/06/21 00:33:24;;;;;;;10.98;5.38;;;;;;;;;;6149099;23;20005;-58
2022/06/21 00:35:50;;;;;;;12.05;5.28;;;;;;;;;;6146836;23;20017;-58
2022/06/21 00:38:18;;;;;;;6.65;4.57;;;;;;;;;;6151623;23;20048;-57
2022/06/21 00:40:44;;;;;;;8.68;4.82;;;;;;;;;;6141307;23;20013;-58
2022/06/21 00:43:15;;;;;;;9.75;5.32;;;;;;;;;;6150384;23;20218;-58
2022/06/21 00:45:42;;;;;;;8.90;5.85;;;;;;;;;;6148592;23;20021;-58
2022/06/21 00:48:10;;;;;;;10.52;5.95;;;;;;;;;;6148004;23;20399;-58
2022/06/21 00:50:37;;;;;;;8.13;5.50;;;;;;;;;;6147960;23;20628;-59
2022/06/21 00:53:29;;;;;;;7.32;5.13;;;;;;;;;;6143650;23;20017;-58
2022/06/21 00:55:54;;;;;;;11.27;5.65;;;;;;;;;;6139930;23;20173;-59
2022/06/21 00:58:21;;;;;;;11.70;5.95;;;;;;;;;;6148735;23;20013;-57
2022/06/21 01:00:54;;;;;;;11.30;6.47;;;;;;;;;;6145444;23;20022;-58
2022/06/21 01:03:24;;;;;;;13.52;5.90;;;;;;;;;;6152231;23;20045;-58
2022/06/21 01:05:51;;;;;;;12.65;6.93;;;;;;;;;;6143531;23;20538;-58
2022/06/21 01:08:19;;;;;;;8.70;5.45;;;;;;;;;;6123203;23;20193;-58
2022/06/21 01:10:45;;;;;;;16.80;7.40;;;;;;;;;;6141006;23;20029;-58
2022/06/21 01:13:13;;;;;;;14.23;6.15;;;;;;;;;;6146851;23;20044;-58
2022/06/21 01:15:41;;;;;;;12.93;7.10;;;;;;;;;;6177830;23;20017;-57
2022/06/21 01:18:08;;;;;;;12.73;6.40;;;;;;;;;;6178457;23;20017;-58
2022/06/21 01:20:34;;;;;;;10.93;6.15;;;;;;;;;;6178709;23;20463;-57
2022/06/21 01:23:09;;;;;;;13.73;6.40;;;;;;;;;;6175947;23;20016;-58
2022/06/21 01:25:49;;;;;;;14.95;6.25;;;;;;;;;;6153329;23;20012;-58
2022/06/21 01:28:15;;;;;;;12.52;6.30;;;;;;;;;;6175345;23;20032;-57
2022/06/21 01:30:42;;;;;;;12.40;5.88;;;;;;;;;;6179198;23;20091;-58
2022/06/21 01:33:09;;;;;;;10.38;5.53;;;;;;;;;;6179796;23;20124;-58
2022/06/21 01:35:44;;;;;;;17.35;6.93;;;;;;;;;;6175859;23;20059;-58
2022/06/21 01:38:11;;;;;;;11.68;6.10;;;;;;;;;;6180028;23;20013;-60
2022/06/21 01:40:40;;;;;;;15.20;6.00;;;;;;;;;;6174552;23;20009;-58
2022/06/21 01:43:07;;;;;;;9.88;7.10;;;;;;;;;;6179521;23;20021;-58
2022/06/21 01:45:53;;;;;;;9.60;5.95;;;;;;;;;;6174189;23;20013;-57
2022/06/21 01:48:22;;;;;;;11.65;6.10;;;;;;;;;;6174725;23;20536;-57
2022/06/21 01:50:48;;;;;;;19.02;6.75;;;;;;;;;;6178777;23;20013;-58
2022/06/21 01:53:14;;;;;;;12.20;7.18;;;;;;;;;;6176242;23;20043;-57
2022/06/21 01:55:42;;;;;;;8.95;5.38;;;;;;;;;;6175889;23;20814;-58
2022/06/21 01:58:10;;;;;;;13.90;6.18;;;;;;;;;;6182346;23;20013;-58
2022/06/21 02:00:36;;;;;;;10.23;6.20;;;;;;;;;;6170212;23;20044;-59
2022/06/21 02:03:06;;;;;;;11.48;6.57;;;;;;;;;;6180709;23;20065;-60
2022/06/21 02:05:35;;;;;;;11.75;6.10;;;;;;;;;;6175668;23;20024;-60
2022/06/21 02:08:05;;;;;;;11.68;6.00;;;;;;;;;;6180076;23;20149;-60
2022/06/21 02:10:30;;;;;;;;;;;;;;;;;;6169313;23;20009;-60
2022/06/21 02:13:31;;;;;;;12.27;6.18;;;;;;;;;;6178845;23;19928;-59
2022/06/21 02:16:06;;;;;;;9.95;5.60;;;;;;;;;;6022383;23;20027;-59
2022/06/21 02:18:33;;;;;;;10.63;6.13;;;;;;;;;;6130274;23;20476;-60
2022/06/21 02:21:09;;;;;;;13.75;6.40;;;;;;;;;;6145157;23;20020;-59
2022/06/21 02:23:35;;;;;;;13.05;6.32;;;;;;;;;;6139618;23;20045;-60
2022/06/21 02:26:00;;;;;;;17.63;6.68;;;;;;;;;;6150691;23;20025;-60
2022/06/21 02:28:28;;;;;;;11.20;6.32;;;;;;;;;;6146623;23;20025;-59
2022/06/21 02:30:54;;;;;;;8.52;5.93;;;;;;;;;;6149023;23;20272;-60
2022/06/21 02:33:22;;;;;;;13.18;6.28;;;;;;;;;;6144648;23;20014;-60
2022/06/21 02:35:50;;;;;;;12.13;6.40;;;;;;;;;;6143631;23;20021;-60
2022/06/21 02:38:38;;;;;;;13.02;6.65;;;;;;;;;;6148325;23;20018;-58
2022/06/21 02:41:24;;;;;;;10.60;6.55;;;;;;;;;;6121724;23;20021;-59
2022/06/21 02:43:58;;;;;;;10.82;6.50;;;;;;;;;;6178056;23;20019;-59
2022/06/21 02:46:26;;;;;;;10.80;5.63;;;;;;;;;;6180102;23;20021;-59
2022/06/21 02:48:51;;;;;;;10.55;6.15;;;;;;;;;;6171081;23;20618;-60
2022/06/21 02:51:19;;;;;;;11.93;5.67;;;;;;;;;;6179299;23;20076;-59
2022/06/21 02:53:51;;;;;;;10.52;6.18;;;;;;;;;;6174525;23;20266;-59
2022/06/21 02:56:21;;;;;;;9.95;6.15;;;;;;;;;;6172258;23;20434;-59
2022/06/21 02:58:48;;;;;;;11.50;7.03;;;;;;;;;;6181631;23;20009;-59
2022/06/21 03:01:16;;;;;;;16.63;7.25;;;;;;;;;;6174947;23;20036;-60
2022/06/21 03:03:42;;;;;;;13.45;6.38;;;;;;;;;;6177174;23;20017;-59
2022/06/21 03:06:08;;;;;;;13.15;7.05;;;;;;;;;;6177761;23;20116;-60
2022/06/21 03:08:33;;;;;;;11.13;7.25;;;;;;;;;;6173475;23;20017;-60
2022/06/21 03:10:59;;;;;;;13.57;7.32;;;;;;;;;;6176548;23;20629;-59
2022/06/21 03:13:28;;;;;;;11.82;6.88;;;;;;;;;;6179221;23;20017;-60
2022/06/21 03:15:58;;;;;;;9.82;6.07;;;;;;;;;;6174597;23;20017;-60
2022/06/21 03:18:25;;;;;;;16.60;7.53;;;;;;;;;;6177157;23;20560;-59
2022/06/21 03:20:51;;;;;;;14.77;8.23;;;;;;;;;;6178327;23;20266;-60
2022/06/21 03:23:18;;;;;;;9.95;7.85;;;;;;;;;;6165553;23;20017;-59
2022/06/21 03:25:46;;;;;;;11.02;7.10;;;;;;;;;;6175452;23;20076;-59
2022/06/21 03:28:20;;;;;;;17.38;8.27;;;;;;;;;;6175910;23;20015;-59
2022/06/21 03:30:46;;;;;;;16.20;7.93;;;;;;;;;;6178879;23;20024;-60
2022/06/21 03:33:11;;;;;;;11.70;7.70;;;;;;;;;;6175177;23;20593;-59
2022/06/21 03:35:37;;;;;;;12.95;7.68;;;;;;;;;;6152094;23;20537;-59
2022/06/21 03:38:02;;;;;;;12.63;7.60;;;;;;;;;;6173068;23;20021;-60
2022/06/21 03:43:21;;;;;;;12.05;6.78;;;;;;;;;;6172543;23;20103;-59
2022/06/21 03:45:47;;;;;;;11.00;7.45;;;;;;;;;;6177464;23;20177;-60
2022/06/21 03:48:18;;;;;;;11.15;6.43;;;;;;;;;;6169734;23;20636;-56
2022/06/21 03:50:46;;;;;;;13.60;6.93;;;;;;;;;;6178932;23;20029;-59
2022/06/21 03:53:20;;;;;;;12.95;7.35;;;;;;;;;;6175724;23;20091;-59
2022/06/21 03:56:03;;;;;;;17.05;6.93;;;;;;;;;;6175111;23;20112;-59
2022/06/21 03:58:35;;;;;;;13.10;6.65;;;;;;;;;;6175517;23;20124;-59
2022/06/21 04:01:17;;;;;;;10.70;7.13;;;;;;;;;;6175165;23;20088;-60
2022/06/21 04:03:45;;;;;;;13.60;7.20;;;;;;;;;;6177300;23;20021;-60
2022/06/21 04:06:14;;;;;;;16.70;8.18;;;;;;;;;;6178220;23;20542;-59
2022/06/21 04:08:44;;;;;;;15.75;7.95;;;;;;;;;;6174459;23;20020;-60
2022/06/21 04:11:13;;;;;;;13.70;7.78;;;;;;;;;;6179151;23;20013;-59
2022/06/21 04:13:38;;;;;;;13.82;7.78;;;;;;;;;;6172080;23;20024;-60
2022/06/21 04:16:07;;;;;;;15.23;7.78;;;;;;;;;;6178682;23;20013;-59
2022/06/21 04:18:38;;;;;;;12.25;8.70;;;;;;;;;;6174417;23;20095;-58
2022/06/21 04:21:12;;;;;;;14.30;6.80;;;;;;;;;;6180621;23;20072;-60
2022/06/21 04:23:37;;;;;;;15.52;7.43;;;;;;;;;;6176666;23;20009;-60
2022/06/21 04:26:19;;;;;;;12.45;7.00;;;;;;;;;;6180113;23;20015;-60
2022/06/21 04:28:48;;;;;;;12.90;6.72;;;;;;;;;;6179970;23;20080;-60
2022/06/21 04:31:37;;;;;;;14.65;7.47;;;;;;;;;;6176044;23;20378;-59
2022/06/21 04:34:09;;;;;;;13.38;7.28;;;;;;;;;;6161517;23;20021;-60
2022/06/21 04:36:36;;;;;;;12.13;7.68;;;;;;;;;;6148924;23;20023;-58
2022/06/21 04:39:07;;;;;;;13.95;8.32;;;;;;;;;;6176693;23;20024;-57
2022/06/21 04:41:38;;;;;;;12.43;7.22;;;;;;;;;;6179077;23;20013;-60
2022/06/21 04:44:13;;;;;;;13.43;7.57;;;;;;;;;;6178036;23;20315;-60
2022/06/21 04:46:44;;;;;;;17.90;7.05;;;;;;;;;;6178219;23;20024;-59
2022/06/21 04:49:09;;;;;;;14.15;8.18;;;;;;;;;;6177012;23;20468;-59
2022/06/21 04:51:42;;;;;;;9.07;6.03;;;;;;;;;;6178477;23;20072;-60
2022/06/21 04:54:16;;;;;;;12.50;7.35;;;;;;;;;;6174237;23;20319;-59
2022/06/21 04:57:00;;;;;;;12.02;6.82;;;;;;;;;;6178929;23;20016;-59
2022/06/21 04:59:28;;;;;;;15.75;6.72;;;;;;;;;;6176640;23;20446;-59
2022/06/21 05:01:54;;;;;;;8.88;6.32;;;;;;;;;;6153007;23;20040;-59
2022/06/21 05:04:21;;;;;;;11.15;6.78;;;;;;;;;;6176901;23;20031;-59
2022/06/21 05:06:47;;;;;;;15.45;8.10;;;;;;;;;;6173081;23;20012;-59
2022/06/21 05:09:14;;;;;;;10.85;7.25;;;;;;;;;;6176946;23;20017;-56
2022/06/21 05:11:39;;;;;;;12.48;6.28;;;;;;;;;;6179639;23;20021;-59
2022/06/21 05:14:05;;;;;;;14.68;7.65;;;;;;;;;;6178059;23;20032;-59
2022/06/21 05:16:35;;;;;;;12.18;8.00;;;;;;;;;;6175118;23;20015;-60
2022/06/21 05:19:12;;;;;;;15.27;7.97;;;;;;;;;;6179162;23;20009;-60
2022/06/21 05:21:44;;;;;;;12.07;7.38;;;;;;;;;;6177028;23;20012;-59
2022/06/21 05:24:10;;;;;;;11.98;8.15;;;;;;;;;;6176844;23;20017;-60
2022/06/21 05:26:43;;;;;;;12.02;7.28;;;;;;;;;;6179709;23;20023;-60
2022/06/21 05:29:11;;;;;;;15.05;7.22;;;;;;;;;;6176369;23;20064;-60
2022/06/21 05:31:39;;;;;;;11.73;7.25;;;;;;;;;;6177028;23;20037;-60
2022/06/21 05:34:09;;;;;;;17.02;8.07;;;;;;;;;;6178799;23;20031;-59
2022/06/21 05:36:35;;;;;;;;;;;;;;;;;;6152451;23;20017;-60
2022/06/21 05:39:04;;;;;;;11.43;8.20;;;;;;;;;;6178147;23;19910;-60
2022/06/21 05:41:41;;;;;;;13.00;7.43;;;;;;;;;;6177109;23;20012;-59
2022/06/21 05:44:11;;;;;;;15.65;8.25;;;;;;;;;;6179117;23;20027;-59
2022/06/21 05:46:40;;;;;;;15.43;8.27;;;;;;;;;;6171770;23;20021;-59
2022/06/21 05:49:10;;;;;;;18.93;8.50;;;;;;;;;;6178962;23;20069;-59
2022/06/21 05:51:35;;;;;;;;;;;;;;;;;;6142567;23;21206;-59
2022/06/21 05:54:04;;;;;;;16.63;8.05;;;;;;;;;;6149279;23;19916;-58
2022/06/21 05:56:31;;;;;;;19.40;8.82;;;;;;;;;;6144525;23;20336;-59
2022/06/21 05:59:00;;;;;;;19.35;7.45;;;;;;;;;;6148662;23;20019;-59
2022/06/21 06:01:28;;;;;;;13.32;6.40;;;;;;;;;;6143282;23;20061;-59
2022/06/21 06:04:00;;;;;;;16.70;6.88;;;;;;;;;;6148310;23;20163;-56
2022/06/21 06:06:29;;;;;;;18.63;7.75;;;;;;;;;;6145159;23;20014;-59
2022/06/21 06:08:57;;;;;;;15.32;6.15;;;;;;;;;;6148302;23;20064;-59
2022/06/21 06:11:24;;;;;;;16.55;7.13;;;;;;;;;;6144619;23;20017;-59
2022/06/21 06:13:50;;;;;;;12.45;7.18;;;;;;;;;;6149739;23;20018;-59
2022/06/21 06:16:22;;;;;;;21.17;7.78;;;;;;;;;;6143834;23;20376;-59
2022/06/21 06:19:07;;;;;;;18.48;7.32;;;;;;;;;;6150511;23;20021;-60
2022/06/21 06:21:45;;;;;;;17.38;6.72;;;;;;;;;;6131078;23;20017;-59
2022/06/21 06:24:22;;;;;;;18.42;7.35;;;;;;;;;;6144499;23;20059;-59
2022/06/21 06:26:49;;;;;;;17.65;7.43;;;;;;;;;;6146398;23;20073;-59
2022/06/21 06:29:18;;;;;;;19.95;7.57;;;;;;;;;;6147227;23;20511;-60
2022/06/21 06:31:57;;;;;;;22.63;6.97;;;;;;;;;;6140585;23;20013;-59
2022/06/21 06:34:25;;;;;;;23.00;7.30;;;;;;;;;;6139404;23;20571;-59
2022/06/21 06:36:52;;;;;;;16.98;7.20;;;;;;;;;;6149353;23;20319;-59
2022/06/21 06:39:28;;;;;;;17.65;7.20;;;;;;;;;;6143103;23;20510;-59
2022/06/21 06:42:00;;;;;;;19.25;7.60;;;;;;;;;;6147318;23;20014;-59
2022/06/21 06:44:31;;;;;;;21.13;7.93;;;;;;;;;;6148972;23;20018;-59
2022/06/21 06:46:59;;;;;;;24.02;8.32;;;;;;;;;;6147413;23;20029;-59
2022/06/21 06:49:27;;;;;;;19.92;8.90;;;;;;;;;;6143606;23;20009;-59
2022/06/21 06:52:13;;;;;;;16.80;7.05;;;;;;;;;;6173540;23;20421;-59
2022/06/21 06:54:43;;;;;;;19.13;7.55;;;;;;;;;;6173063;23;20020;-59
2022/06/21 06:57:30;;;;;;;24.02;7.28;;;;;;;;;;6128192;23;20023;-59
2022/06/21 06:59:57;;;;;;;29.80;7.97;;;;;;;;;;6145817;23;20021;-59
2022/06/21 07:02:30;;;;;;;21.38;7.60;;;;;;;;;;6148466;23;20092;-59
2022/06/21 07:05:02;;;;;;;11.85;6.70;;;;;;;;;;6147531;23;20037;-60
2022/06/21 07:07:33;;;;;;;20.58;7.05;;;;;;;;;;6140708;23;20010;-59
2022/06/21 07:10:02;;;;;;;23.63;8.10;;;;;;;;;;6150894;23;20014;-59
2022/06/21 07:12:28;;;;;;;18.20;7.20;;;;;;;;;;6149583;23;20048;-59
2022/06/21 07:14:54;;;;;;;16.45;7.65;;;;;;;;;;6142768;23;20073;-59
2022/06/21 07:17:27;;;;;;;16.75;7.15;;;;;;;;;;6149218;23;20014;-60
2022/06/21 07:19:53;;;;;;;21.77;7.45;;;;;;;;;;6148265;23;20094;-59
2022/06/21 07:22:20;;;;;;;17.67;7.07;;;;;;;;;;6145981;23;20202;-59
2022/06/21 07:24:50;;;;;;;18.42;6.93;;;;;;;;;;6148631;23;20306;-59
2022/06/21 07:27:16;;;;;;;19.17;8.15;;;;;;;;;;6139959;23;20020;-59
2022/06/21 07:29:46;;;;;;;17.17;7.13;;;;;;;;;;6143476;23;20557;-60
2022/06/21 07:32:14;;;;;;;18.70;8.57;;;;;;;;;;6144187;23;20014;-59
2022/06/21 07:34:43;;;;;;;22.25;8.60;;;;;;;;;;6148193;23;20024;-59
2022/06/21 07:37:14;;;;;;;17.20;7.43;;;;;;;;;;6142901;23;20022;-60
2022/06/21 07:39:43;;;;;;;21.27;7.70;;;;;;;;;;6175582;23;20013;-60
2022/06/21 07:42:26;;;;;;;12.65;6.95;;;;;;;;;;6176954;23;20028;-58
2022/06/21 07:44:52;;;;;;;20.08;8.05;;;;;;;;;;6168365;23;20084;-61
2022/06/21 07:47:43;;;;;;;21.02;7.30;;;;;;;;;;6178249;23;20092;-59
2022/06/21 07:50:16;;;;;;;14.00;6.75;;;;;;;;;;6093528;23;20081;-58
2022/06/21 07:52:45;;;;;;;14.80;7.43;;;;;;;;;;6178133;23;20013;-60
2022/06/21 07:55:21;;;;;;;27.05;8.25;;;;;;;;;;6176171;23;20021;-60
2022/06/21 07:57:52;;;;;;;22.75;7.25;;;;;;;;;;6178303;23;20037;-61
2022/06/21 08:00:19;;;;;;;20.40;8.10;;;;;;;;;;6180259;23;20017;-58
2022/06/21 08:08:40;;;;;;;26.30;7.65;;;;;;;;;;6171347;23;20604;-61
2022/06/21 08:11:11;;;;;;;20.40;7.30;;;;;;;;;;6176004;23;20016;-61
2022/06/21 08:13:37;;;;;;;18.67;7.13;;;;;;;;;;6169238;23;20017;-61
2022/06/21 08:16:16;;;;;;;14.70;6.80;;;;;;;;;;6176222;23;20009;-61
2022/06/21 08:18:47;;;;;;;8.45;3.67;;;;;;;;;;6173775;23;20021;-61
2022/06/21 08:21:19;;;;;;;26.80;7.07;;;;;;;;;;6164697;23;20028;-61
2022/06/21 08:23:52;;;;;;;25.13;7.10;;;;;;;;;;6165293;23;20017;-60
2022/06/21 08:26:39;;;;;;;20.30;6.68;;;;;;;;;;6165466;23;20393;-61
2022/06/21 08:29:07;;;;;;;20.52;6.05;;;;;;;;;;6177050;23;20088;-60
2022/06/21 08:31:38;;;;;;;15.13;5.65;;;;;;;;;;6173869;23;20044;-60
2022/06/21 08:34:26;;;;;;;14.38;5.20;;;;;;;;;;6177501;23;20020;-61
2022/06/21 08:36:55;;;;;;;13.13;6.22;;;;;;;;;;6173481;23;20346;-60
2022/06/21 08:39:34;;;;;;;10.52;5.65;;;;;;;;;;6180776;23;20139;-61
2022/06/21 08:42:11;;;;;;;14.40;5.40;;;;;;;;;;6175241;23;20519;-60
2022/06/21 08:44:37;;;;;;;11.68;6.00;;;;;;;;;;6147325;23;20029;-60
2022/06/21 08:47:20;;;;;;;16.85;6.97;;;;;;;;;;6151013;23;20045;-61
2022/06/21 08:49:46;;;;;;;13.13;6.43;;;;;;;;;;6175022;23;20056;-60
2022/06/21 08:52:20;;;;;;;13.18;5.28;;;;;;;;;;6152632;23;20013;-61
2022/06/21 08:54:46;;;;;;;12.18;4.63;;;;;;;;;;6171667;23;20712;-60
2022/06/21 08:57:21;;;;;;;23.60;6.87;;;;;;;;;;6180704;23;20012;-60
2022/06/21 09:00:12;;;;;;;13.98;5.22;;;;;;;;;;6175895;23;20239;-61
2022/06/21 09:02:44;;;;;;;11.55;4.78;;;;;;;;;;6115700;23;20017;-60
2022/06/21 09:05:15;;;;;;;12.30;5.55;;;;;;;;;;6171776;23;20025;-60
2022/06/21 09:07:40;;;;;;;12.93;5.72;;;;;;;;;;6178742;23;20021;-61
2022/06/21 09:10:06;;;;;;;14.33;5.43;;;;;;;;;;6176353;23;20020;-61
2022/06/21 09:12:34;;;;;;;12.18;5.93;;;;;;;;;;6180284;23;20231;-60
2022/06/21 09:14:59;;;;;;;6.65;3.33;;;;;;;;;;6175579;23;20502;-60
2022/06/21 09:17:50;;;;;;;13.27;5.75;;;;;;;;;;6177664;23;20009;-60
2022/06/21 09:20:23;;;;;;;20.33;5.57;;;;;;;;;;6170484;23;20068;-61
2022/06/21 09:22:53;;;;;;;17.15;5.90;;;;;;;;;;6170973;23;20456;-59
2022/06/21 09:25:18;;;;;;;11.88;5.53;;;;;;;;;;6179678;23;20021;-60
2022/06/21 09:27:47;;;;;;;16.85;5.38;;;;;;;;;;6166092;23;20566;-61
2022/06/21 09:30:15;;;;;;;13.53;5.67;;;;;;;;;;6177657;23;20021;-54
2022/06/21 09:32:44;;;;;;;15.93;6.70;;;;;;;;;;6177599;23;20043;-60
2022/06/21 09:35:21;;;;;;;19.35;6.28;;;;;;;;;;6177652;23;20035;-60
2022/06/21 09:38:08;;;;;;;18.13;5.60;;;;;;;;;;6174921;23;20018;-60
2022/06/21 09:40:36;;;;;;;18.17;6.88;;;;;;;;;;6176692;23;20009;-60
2022/06/21 09:43:07;;;;;;;17.17;6.13;;;;;;;;;;6178492;23;20020;-61
2022/06/21 09:45:33;;;;;;;15.93;5.97;;;;;;;;;;6178209;23;20436;-61
2022/06/21 09:48:01;;;;;;;11.77;4.78;;;;;;;;;;6174849;23;20024;-61
2022/06/21 09:50:34;;;;;;;10.40;5.10;;;;;;;;;;6177982;23;20085;-61
2022/06/21 09:52:59;;;;;;;11.13;4.53;;;;;;;;;;6175258;23;20013;-60
2022/06/21 09:55:54;;;;;;;10.97;5.13;;;;;;;;;;6181596;23;20025;-60
2022/06/21 09:58:27;;;;;;;7.75;3.78;;;;;;;;;;6118463;23;20303;-60
2022/06/21 10:01:01;;;;;;;10.63;4.40;;;;;;;;;;6149006;23;20175;-60
2022/06/21 10:03:36;;;;;;;8.23;4.07;;;;;;;;;;6146821;23;20480;-60
2022/06/21 10:06:12;;;;;;;10.77;4.43;;;;;;;;;;6147161;23;20025;-60
2022/06/21 10:08:45;;;;;;;8.65;3.95;;;;;;;;;;6147670;23;20024;-60
2022/06/21 10:11:13;;;;;;;12.65;4.53;;;;;;;;;;6147918;23;20014;-61
2022/06/21 10:13:57;;;;;;;8.10;3.97;;;;;;;;;;6177706;23;20068;-60
2022/06/21 10:16:41;;;;;;;14.80;6.07;;;;;;;;;;6177837;23;20017;-60
2022/06/21 10:19:23;;;;;;;11.23;4.25;;;;;;;;;;6181232;23;20028;-60
2022/06/21 10:21:51;;;;;;;11.68;4.18;;;;;;;;;;6177635;23;20013;-60
2022/06/21 10:24:35;;;;;;;13.30;5.05;;;;;;;;;;6166233;23;20056;-60
2022/06/21 10:27:20;;;;;;;11.10;4.13;;;;;;;;;;6178574;23;20024;-60
2022/06/21 10:29:52;;;;;;;12.32;4.07;;;;;;;;;;6174371;23;20036;-59
2022/06/21 10:32:36;;;;;;;8.15;3.70;;;;;;;;;;6174256;23;20471;-59
2022/06/21 10:35:30;;;;;;;14.55;4.40;;;;;;;;;;6181005;23;20068;-60
2022/06/21 10:38:04;;;;;;;4.63;3.13;;;;;;;;;;6144526;23;20060;-60
2022/06/21 10:40:35;;;;;;;11.38;4.50;;;;;;;;;;6175093;23;20032;-61
2022/06/21 10:43:19;;;;;;;13.27;4.55;;;;;;;;;;6154607;23;20027;-61
2022/06/21 10:46:04;;;;;;;11.93;4.25;;;;;;;;;;6175150;23;20028;-60
2022/06/21 10:48:42;;;;;;;7.70;3.88;;;;;;;;;;6170811;23;20025;-61
2022/06/21 10:51:25;;;;;;;13.35;4.70;;;;;;;;;;6174922;23;20021;-60
2022/06/21 10:54:09;;;;;;;11.60;4.35;;;;;;;;;;6143273;23;20377;-61
2022/06/21 10:57:10;;;;;;;13.20;4.15;;;;;;;;;;6145324;23;20016;-60
2022/06/21 11:02:34;;;;;;;14.40;4.50;;;;;;;;;;6148510;23;20024;-60
2022/06/21 11:05:00;;;;;;;13.65;4.63;;;;;;;;;;6145394;23;20010;-61
2022/06/21 11:07:45;;;;;;;13.87;4.83;;;;;;;;;;6138360;23;20010;-60
2022/06/21 11:10:13;;;;;;;13.65;4.47;;;;;;;;;;6146397;23;20295;-61
2022/06/21 11:15:39;;;;;;;12.00;4.65;;;;;;;;;;6141998;23;20036;-60
2022/06/21 11:18:10;;;;;;;13.88;4.53;;;;;;;;;;6149789;23;20016;-58
2022/06/21 11:20:36;;;;;;;8.57;4.47;;;;;;;;;;6141433;23;20018;-59
2022/06/21 11:23:15;;;;;;;8.60;3.67;;;;;;;;;;6146747;23;20021;-59
2022/06/21 11:26:00;;;;;;;14.35;5.07;;;;;;;;;;6142007;23;20017;-59
2022/06/21 11:29:01;;;;;;;11.05;4.53;;;;;;;;;;6141110;23;20009;-59
2022/06/21 11:31:50;;;;;;;9.65;4.43;;;;;;;;;;6015293;23;20019;-59
2022/06/21 11:34:22;;;;;;;9.98;4.43;;;;;;;;;;6172387;23;20017;-59
2022/06/21 11:36:56;;;;;;;12.23;4.28;;;;;;;;;;6176698;23;20017;-59
2022/06/21 11:39:33;;;;;;;8.70;4.80;;;;;;;;;;6174202;23;20013;-60
2022/06/21 11:42:08;;;;;;;7.50;3.30;;;;;;;;;;6177501;23;20009;-59
2022/06/21 11:44:49;;;;;;;7.88;4.50;;;;;;;;;;6180608;23;20020;-59
2022/06/21 11:47:20;;;;;;;16.35;4.22;;;;;;;;;;6179916;23;20036;-58
2022/06/21 11:50:04;;;;;;;10.05;4.03;;;;;;;;;;6150863;23;20020;-59
2022/06/21 11:52:46;;;;;;;10.07;3.83;;;;;;;;;;6179852;23;20021;-59
2022/06/21 11:55:14;;;;;;;10.05;3.70;;;;;;;;;;6174577;23;20109;-59
2022/06/21 11:57:52;;;;;;;8.68;3.10;;;;;;;;;;6181735;23;20044;-59
2022/06/21 12:00:40;;;;;;;11.15;4.00;;;;;;;;;;6174170;23;20013;-57
2022/06/21 12:03:10;;;;;;;8.40;3.67;;;;;;;;;;6179663;23;20013;-59
2022/06/21 12:05:51;;;;;;;7.22;2.95;;;;;;;;;;6181156;23;20016;-59
2022/06/21 12:08:29;;;;;;;5.57;2.83;;;;;;;;;;6174010;23;20013;-59
2022/06/21 12:10:58;;;;;;;9.40;3.10;;;;;;;;;;6181311;23;20033;-59
2022/06/21 12:13:38;;;;;;;9.93;3.03;;;;;;;;;;6177431;23;20013;-59
2022/06/21 12:16:07;;;;;;;5.00;2.00;;;;;;;;;;6175959;23;20076;-59
2022/06/21 12:18:33;;;;;;;7.07;3.47;;;;;;;;;;6178816;23;20021;-59
2022/06/21 12:21:07;;;;;;;7.40;2.70;;;;;;;;;;6176691;23;20013;-59
2022/06/21 12:23:41;;;;;;;7.53;2.55;;;;;;;;;;6175324;23;20065;-60
2022/06/21 12:26:08;;;;;;;6.10;2.30;;;;;;;;;;6174620;23;20044;-59
2022/06/21 12:28:35;;;;;;;3.42;2.38;;;;;;;;;;6177816;23;20016;-59
2022/06/21 12:31:03;;;;;;;5.70;2.33;;;;;;;;;;6177169;23;20028;-59
2022/06/21 12:33:33;;;;;;;13.07;3.20;;;;;;;;;;6177823;23;20009;-59
2022/06/21 12:36:01;;;;;;;7.13;2.35;;;;;;;;;;6177929;23;20083;-59
2022/06/21 12:38:33;;;;;;;5.55;2.30;;;;;;;;;;6176345;23;20096;-59
2022/06/21 12:41:14;;;;;;;6.80;2.75;;;;;;;;;;6176579;23;20020;-59
2022/06/21 12:43:42;;;;;;;3.88;2.25;;;;;;;;;;6175347;23;20021;-59
2022/06/21 12:46:11;;;;;;;5.13;2.03;;;;;;;;;;6176247;23;20017;-59
2022/06/21 12:48:45;;;;;;;5.82;2.17;;;;;;;;;;6176097;23;20070;-58
2022/06/21 12:51:20;;;;;;;6.93;2.20;;;;;;;;;;6172388;23;20035;-59
2022/06/21 12:53:47;;;;;;;4.78;2.40;;;;;;;;;;6178583;23;20021;-58
2022/06/21 12:56:39;;;;;;;9.88;2.63;;;;;;;;;;6173497;23;20388;-57
2022/06/21 12:59:15;;;;;;;8.50;2.95;;;;;;;;;;6177722;23;20041;-59
2022/06/21 13:01:43;;;;;;;3.08;2.17;;;;;;;;;;6179418;23;20013;-59
2022/06/21 13:04:24;;;;;;;7.90;2.25;;;;;;;;;;6177652;23;20013;-58
2022/06/21 13:06:55;;;;;;;8.18;2.20;;;;;;;;;;6177518;23;20017;-59
2022/06/21 13:09:24;;;;;;;4.20;2.45;;;;;;;;;;6170896;23;20096;-59
2022/06/21 13:12:15;;;;;;;4.20;2.15;;;;;;;;;;6173868;23;20020;-59
2022/06/21 13:14:50;;;;;;;6.45;2.97;;;;;;;;;;6167451;23;20025;-59
2022/06/21 13:17:15;;;;;;;4.10;2.30;;;;;;;;;;6177969;23;20448;-58
2022/06/21 13:19:50;;;;;;;6.53;3.13;;;;;;;;;;6179099;23;20077;-59
2022/06/21 13:22:16;;;;;;;7.60;3.20;;;;;;;;;;6174387;23;20266;-58
2022/06/21 13:24:52;;;;;;;3.78;2.55;;;;;;;;;;6175895;23;20017;-59
2022/06/21 13:27:25;;;;;;;4.68;2.22;;;;;;;;;;6177604;23;20017;-58
2022/06/21 13:29:54;;;;;;;4.30;2.20;;;;;;;;;;6176037;23;20073;-58
2022/06/21 13:32:23;;;;;;;4.07;1.98;;;;;;;;;;6176316;23;20023;-58
2022/06/21 13:34:53;;;;;;;5.63;2.13;;;;;;;;;;6178590;23;20051;-58
2022/06/21 13:37:27;;;;;;;5.20;2.28;;;;;;;;;;6176861;23;20080;-58
2022/06/21 13:40:15;;;;;;;9.10;2.40;;;;;;;;;;6170588;23;20017;-59
2022/06/21 13:42:46;;;;;;;6.20;2.13;;;;;;;;;;6074019;23;20009;-59
2022/06/21 13:45:11;;;;;;;5.55;2.53;;;;;;;;;;6149615;23;20073;-59
2022/06/21 13:47:45;;;;;;;8.07;2.30;;;;;;;;;;6145766;23;20013;-59
2022/06/21 13:50:16;;;;;;;5.25;1.85;;;;;;;;;;6150463;23;20816;-59
2022/06/21 13:52:58;;;;;;;2.72;1.60;;;;;;;;;;6114329;23;20022;-59
2022/06/21 13:55:41;;;;;;;2.67;1.85;;;;;;;;;;6145481;23;20029;-60
2022/06/21 13:58:22;;;;;;;3.40;2.00;;;;;;;;;;6150724;23;20014;-59
2022/06/21 14:00:55;;;;;;;3.60;1.83;;;;;;;;;;6176239;23;20017;-59
2022/06/21 14:03:44;;;;;;;4.15;1.98;;;;;;;;;;6172031;23;20013;-59
2022/06/21 14:06:17;;;;;;;5.25;2.00;;;;;;;;;;6086648;23;20025;-59
2022/06/21 14:08:47;;;;;;;6.57;1.92;;;;;;;;;;6174839;23;20013;-59
2022/06/21 14:11:36;;;;;;;5.70;1.88;;;;;;;;;;6176088;23;20020;-59
2022/06/21 14:14:07;;;;;;;6.82;2.60;;;;;;;;;;6084782;23;20018;-59
2022/06/21 14:16:36;;;;;;;3.70;2.10;;;;;;;;;;6137416;23;20012;-59
2022/06/21 14:19:03;;;;;;;9.02;2.35;;;;;;;;;;6141606;23;20018;-59
2022/06/21 14:21:40;;;;;;;7.07;2.08;;;;;;;;;;6146237;23;20033;-59
2022/06/21 14:24:26;;;;;;;3.78;2.05;;;;;;;;;;6136325;23;20400;-59
2022/06/21 14:26:54;;;;;;;4.88;2.20;;;;;;;;;;6049513;23;20335;-59
2022/06/21 14:29:38;;;;;;;3.63;1.88;;;;;;;;;;6146267;23;20025;-59
2022/06/21 14:32:18;;;;;;;5.63;2.75;;;;;;;;;;6149813;23;20022;-59
2022/06/21 14:35:02;;;;;;;2.58;1.63;;;;;;;;;;6172356;23;20020;-59
2022/06/21 14:37:52;;;;;;;3.17;1.98;;;;;;;;;;6176995;23;20103;-59
2022/06/21 14:40:29;;;;;;;3.42;1.70;;;;;;;;;;6175860;23;20028;-58
2022/06/21 14:42:57;;;;;;;5.03;1.60;;;;;;;;;;6172785;23;20020;-60
2022/06/21 14:45:32;;;;;;;2.60;1.55;;;;;;;;;;6177262;23;20204;-60
2022/06/21 14:48:05;;;;;;;2.47;1.58;;;;;;;;;;6174586;23;20039;-59
2022/06/21 14:50:46;;;;;;;2.80;1.40;;;;;;;;;;6178772;23;20505;-59
2022/06/21 14:53:38;;;;;;;7.05;2.22;;;;;;;;;;6174002;23;20021;-55
2022/06/21 14:56:03;;;;;;;9.15;2.40;;;;;;;;;;6101564;23;20025;-59
2022/06/21 14:58:47;;;;;;;4.37;2.27;;;;;;;;;;6148098;23;20399;-59
2022/06/21 15:01:31;;;;;;;5.28;1.67;;;;;;;;;;6148352;23;20228;-59
2022/06/21 15:04:00;;;;;;;6.82;1.73;;;;;;;;;;6143456;23;20014;-59
2022/06/21 15:06:28;;;;;;;5.88;2.00;;;;;;;;;;6143855;23;20009;-59
2022/06/21 15:08:56;;;;;;;5.57;2.10;;;;;;;;;;6145756;23;20045;-59
2022/06/21 15:11:22;;;;;;;5.18;1.95;;;;;;;;;;6141462;23;20017;-59
2022/06/21 15:14:01;;;;;;;3.90;1.67;;;;;;;;;;6147027;23;20037;-59
2022/06/21 15:16:33;;;;;;;3.55;1.98;;;;;;;;;;6139429;23;20033;-60
2022/06/21 15:19:53;;;;;;;2.13;1.55;;;;;;;;;;6149188;23;20021;-59
2022/06/21 15:21:48;;;;;;;3.65;1.67;;;;;;;;;;6141249;23;20018;-59